sensor_id;sensor_type;location;lat;lon;timestamp;P1;durP1;ratioP1;P2;durP2;ratioP2
11907;SDS011;6014;47.690;9.130;2023-06-26T00:00:31;8.63;;;4.60;;
11907;SDS011;6014;47.690;9.130;2023-06-26T00:05:48;7.80;;;4.30;;
11907;SDS011;6014;47.690;9.130;2023-06-26T00:08:17;8.63;;;4.33;;
11907;SDS011;6014;47.690;9.130;2023-06-26T00:13:38;10.77;;;4.70;;
11907;SDS011;6014;47.690;9.130;2023-06-26T00:16:06;9.93;;;4.50;;
11907;SDS011;6014;47.690;9.130;2023-06-26T00:18:35;9.00;;;4.70;;
11907;SDS011;6014;47.690;9.130;2023-06-26T00:21:04;7.90;;;4.67;;
11907;SDS011;6014;47.690;9.130;2023-06-26T00:23:34;8.20;;;4.33;;
11907;SDS011;6014;47.690;9.130;2023-06-26T00:26:13;8.97;;;4.40;;
11907;SDS011;6014;47.690;9.130;2023-06-26T00:28:42;9.80;;;4.03;;
11907;SDS011;6014;47.690;9.130;2023-06-26T00:31:10;8.30;;;4.57;;
11907;SDS011;6014;47.690;9.130;2023-06-26T00:33:40;8.47;;;4.33;;
11907;SDS011;6014;47.690;9.130;2023-06-26T00:36:17;8.70;;;4.40;;
11907;SDS011;6014;47.690;9.130;2023-06-26T00:38:45;8.57;;;4.50;;
11907;SDS011;6014;47.690;9.130;2023-06-26T00:41:13;8.57;;;3.90;;
11907;SDS011;6014;47.690;9.130;2023-06-26T00:43:43;7.63;;;4.77;;
11907;SDS011;6014;47.690;9.130;2023-06-26T00:46:12;9.03;;;4.67;;
11907;SDS011;6014;47.690;9.130;2023-06-26T00:48:43;9.13;;;5.27;;
11907;SDS011;6014;47.690;9.130;2023-06-26T00:51:13;7.80;;;4.33;;
11907;SDS011;6014;47.690;9.130;2023-06-26T00:53:41;7.50;;;4.40;;
11907;SDS011;6014;47.690;9.130;2023-06-26T00:56:10;8.33;;;4.50;;
11907;SDS011;6014;47.690;9.130;2023-06-26T00:58:39;8.03;;;4.60;;
11907;SDS011;6014;47.690;9.130;2023-06-26T01:01:07;9.67;;;4.87;;
11907;SDS011;6014;47.690;9.130;2023-06-26T01:03:40;8.37;;;4.30;;
11907;SDS011;6014;47.690;9.130;2023-06-26T01:06:11;8.50;;;4.77;;
11907;SDS011;6014;47.690;9.130;2023-06-26T01:11:28;8.03;;;4.50;;
11907;SDS011;6014;47.690;9.130;2023-06-26T01:13:57;8.20;;;4.43;;
11907;SDS011;6014;47.690;9.130;2023-06-26T01:16:30;9.23;;;4.90;;
11907;SDS011;6014;47.690;9.130;2023-06-26T01:19:00;8.87;;;4.87;;
11907;SDS011;6014;47.690;9.130;2023-06-26T01:21:29;8.90;;;4.83;;
11907;SDS011;6014;47.690;9.130;2023-06-26T01:24:02;8.13;;;4.30;;
11907;SDS011;6014;47.690;9.130;2023-06-26T01:29:31;9.43;;;5.47;;
11907;SDS011;6014;47.690;9.130;2023-06-26T01:32:01;8.57;;;4.90;;
11907;SDS011;6014;47.690;9.130;2023-06-26T01:34:30;8.47;;;4.80;;
11907;SDS011;6014;47.690;9.130;2023-06-26T01:36:58;7.93;;;4.67;;
11907;SDS011;6014;47.690;9.130;2023-06-26T01:39:26;9.73;;;5.20;;
11907;SDS011;6014;47.690;9.130;2023-06-26T01:41:56;8.07;;;4.77;;
11907;SDS011;6014;47.690;9.130;2023-06-26T01:44:26;8.67;;;4.47;;
11907;SDS011;6014;47.690;9.130;2023-06-26T01:47:00;8.23;;;4.67;;
11907;SDS011;6014;47.690;9.130;2023-06-26T01:49:30;7.80;;;4.77;;
11907;SDS011;6014;47.690;9.130;2023-06-26T01:52:11;9.67;;;5.00;;
11907;SDS011;6014;47.690;9.130;2023-06-26T01:54:46;10.80;;;5.83;;
11907;SDS011;6014;47.690;9.130;2023-06-26T01:57:22;9.97;;;5.63;;
11907;SDS011;6014;47.690;9.130;2023-06-26T01:59:53;8.47;;;4.47;;
11907;SDS011;6014;47.690;9.130;2023-06-26T02:02:23;7.73;;;4.23;;
11907;SDS011;6014;47.690;9.130;2023-06-26T02:04:52;8.97;;;4.53;;
11907;SDS011;6014;47.690;9.130;2023-06-26T02:09:52;8.83;;;5.13;;
11907;SDS011;6014;47.690;9.130;2023-06-26T02:12:22;8.23;;;4.87;;
11907;SDS011;6014;47.690;9.130;2023-06-26T02:14:50;8.20;;;4.70;;
11907;SDS011;6014;47.690;9.130;2023-06-26T02:17:19;8.20;;;4.60;;
11907;SDS011;6014;47.690;9.130;2023-06-26T02:19:47;9.07;;;4.73;;
11907;SDS011;6014;47.690;9.130;2023-06-26T02:22:16;8.67;;;5.30;;
11907;SDS011;6014;47.690;9.130;2023-06-26T02:24:45;9.37;;;5.37;;
11907;SDS011;6014;47.690;9.130;2023-06-26T02:27:16;9.33;;;5.50;;
11907;SDS011;6014;47.690;9.130;2023-06-26T02:29:56;9.93;;;5.00;;
11907;SDS011;6014;47.690;9.130;2023-06-26T02:32:41;8.83;;;4.67;;
11907;SDS011;6014;47.690;9.130;2023-06-26T02:35:10;8.80;;;4.57;;
11907;SDS011;6014;47.690;9.130;2023-06-26T02:37:38;8.43;;;4.93;;
11907;SDS011;6014;47.690;9.130;2023-06-26T02:40:06;8.50;;;4.97;;
11907;SDS011;6014;47.690;9.130;2023-06-26T02:42:38;8.07;;;4.83;;
11907;SDS011;6014;47.690;9.130;2023-06-26T02:45:06;8.53;;;5.17;;
11907;SDS011;6014;47.690;9.130;2023-06-26T02:47:35;10.17;;;5.93;;
11907;SDS011;6014;47.690;9.130;2023-06-26T02:52:46;9.00;;;5.30;;
11907;SDS011;6014;47.690;9.130;2023-06-26T02:55:19;8.80;;;5.30;;
11907;SDS011;6014;47.690;9.130;2023-06-26T02:57:50;9.03;;;4.60;;
11907;SDS011;6014;47.690;9.130;2023-06-26T03:00:19;7.67;;;4.50;;
11907;SDS011;6014;47.690;9.130;2023-06-26T03:02:50;10.37;;;5.03;;
11907;SDS011;6014;47.690;9.130;2023-06-26T03:05:18;10.07;;;5.30;;
11907;SDS011;6014;47.690;9.130;2023-06-26T03:07:46;8.50;;;5.10;;
11907;SDS011;6014;47.690;9.130;2023-06-26T03:10:14;8.57;;;5.03;;
11907;SDS011;6014;47.690;9.130;2023-06-26T03:12:42;11.00;;;5.53;;
11907;SDS011;6014;47.690;9.130;2023-06-26T03:15:12;7.90;;;4.47;;
11907;SDS011;6014;47.690;9.130;2023-06-26T03:17:41;8.97;;;4.87;;
11907;SDS011;6014;47.690;9.130;2023-06-26T03:20:09;9.60;;;5.37;;
11907;SDS011;6014;47.690;9.130;2023-06-26T03:22:37;8.97;;;4.60;;
11907;SDS011;6014;47.690;9.130;2023-06-26T03:25:06;9.10;;;4.97;;
11907;SDS011;6014;47.690;9.130;2023-06-26T03:27:34;9.53;;;5.33;;
11907;SDS011;6014;47.690;9.130;2023-06-26T03:30:10;10.27;;;5.70;;
11907;SDS011;6014;47.690;9.130;2023-06-26T03:32:41;10.03;;;5.87;;
11907;SDS011;6014;47.690;9.130;2023-06-26T03:35:10;9.37;;;5.30;;
11907;SDS011;6014;47.690;9.130;2023-06-26T03:37:38;9.73;;;5.57;;
11907;SDS011;6014;47.690;9.130;2023-06-26T03:40:07;9.50;;;5.93;;
11907;SDS011;6014;47.690;9.130;2023-06-26T03:42:36;12.80;;;6.47;;
11907;SDS011;6014;47.690;9.130;2023-06-26T03:45:04;9.13;;;5.23;;
11907;SDS011;6014;47.690;9.130;2023-06-26T03:47:34;9.37;;;5.40;;
11907;SDS011;6014;47.690;9.130;2023-06-26T03:50:11;8.87;;;5.40;;
11907;SDS011;6014;47.690;9.130;2023-06-26T03:52:39;10.73;;;5.23;;
11907;SDS011;6014;47.690;9.130;2023-06-26T03:55:07;8.87;;;5.13;;
11907;SDS011;6014;47.690;9.130;2023-06-26T03:57:36;8.90;;;5.43;;
11907;SDS011;6014;47.690;9.130;2023-06-26T04:00:04;8.83;;;5.63;;
11907;SDS011;6014;47.690;9.130;2023-06-26T04:02:36;9.00;;;5.50;;
11907;SDS011;6014;47.690;9.130;2023-06-26T04:05:05;9.57;;;5.50;;
11907;SDS011;6014;47.690;9.130;2023-06-26T04:07:33;9.80;;;5.63;;
11907;SDS011;6014;47.690;9.130;2023-06-26T04:10:02;9.37;;;5.77;;
11907;SDS011;6014;47.690;9.130;2023-06-26T04:15:09;9.77;;;5.50;;
11907;SDS011;6014;47.690;9.130;2023-06-26T04:17:39;9.60;;;5.70;;
11907;SDS011;6014;47.690;9.130;2023-06-26T04:20:08;9.33;;;5.43;;
11907;SDS011;6014;47.690;9.130;2023-06-26T04:22:36;10.07;;;5.87;;
11907;SDS011;6014;47.690;9.130;2023-06-26T04:25:05;13.43;;;6.23;;
11907;SDS011;6014;47.690;9.130;2023-06-26T04:27:34;9.53;;;5.93;;
11907;SDS011;6014;47.690;9.130;2023-06-26T04:30:06;11.60;;;6.60;;
11907;SDS011;6014;47.690;9.130;2023-06-26T04:32:35;10.73;;;5.47;;
11907;SDS011;6014;47.690;9.130;2023-06-26T04:35:04;11.07;;;5.73;;
11907;SDS011;6014;47.690;9.130;2023-06-26T04:37:33;10.23;;;6.27;;
11907;SDS011;6014;47.690;9.130;2023-06-26T04:40:03;10.47;;;5.57;;
11907;SDS011;6014;47.690;9.130;2023-06-26T04:42:32;10.50;;;5.87;;
11907;SDS011;6014;47.690;9.130;2023-06-26T04:45:01;10.30;;;5.50;;
11907;SDS011;6014;47.690;9.130;2023-06-26T04:47:30;11.23;;;6.10;;
11907;SDS011;6014;47.690;9.130;2023-06-26T04:49:58;8.97;;;5.00;;
11907;SDS011;6014;47.690;9.130;2023-06-26T04:52:27;10.53;;;5.40;;
11907;SDS011;6014;47.690;9.130;2023-06-26T04:54:56;9.50;;;4.90;;
11907;SDS011;6014;47.690;9.130;2023-06-26T04:57:24;8.87;;;5.67;;
11907;SDS011;6014;47.690;9.130;2023-06-26T04:59:59;11.20;;;6.00;;
11907;SDS011;6014;47.690;9.130;2023-06-26T05:02:27;9.03;;;5.20;;
11907;SDS011;6014;47.690;9.130;2023-06-26T05:04:55;8.00;;;5.00;;
11907;SDS011;6014;47.690;9.130;2023-06-26T05:07:24;8.53;;;5.00;;
11907;SDS011;6014;47.690;9.130;2023-06-26T05:09:53;9.03;;;5.00;;
11907;SDS011;6014;47.690;9.130;2023-06-26T05:12:22;11.27;;;5.67;;
11907;SDS011;6014;47.690;9.130;2023-06-26T05:14:50;9.17;;;5.40;;
11907;SDS011;6014;47.690;9.130;2023-06-26T05:17:18;9.83;;;5.83;;
11907;SDS011;6014;47.690;9.130;2023-06-26T05:19:47;11.67;;;6.23;;
11907;SDS011;6014;47.690;9.130;2023-06-26T05:22:15;9.13;;;5.30;;
11907;SDS011;6014;47.690;9.130;2023-06-26T05:24:51;10.23;;;6.27;;
11907;SDS011;6014;47.690;9.130;2023-06-26T05:27:26;10.73;;;6.07;;
11907;SDS011;6014;47.690;9.130;2023-06-26T05:29:55;11.43;;;6.37;;
11907;SDS011;6014;47.690;9.130;2023-06-26T05:32:24;9.63;;;6.07;;
11907;SDS011;6014;47.690;9.130;2023-06-26T05:34:53;11.73;;;6.32;;
11907;SDS011;6014;47.690;9.130;2023-06-26T05:40:27;10.82;;;6.22;;
11907;SDS011;6014;47.690;9.130;2023-06-26T05:42:55;14.85;;;5.78;;
11907;SDS011;6014;47.690;9.130;2023-06-26T05:45:24;11.27;;;5.70;;
11907;SDS011;6014;47.690;9.130;2023-06-26T05:47:52;10.25;;;6.28;;
11907;SDS011;6014;47.690;9.130;2023-06-26T05:50:21;9.77;;;5.43;;
11907;SDS011;6014;47.690;9.130;2023-06-26T05:52:50;10.10;;;6.18;;
11907;SDS011;6014;47.690;9.130;2023-06-26T05:55:20;10.35;;;6.50;;
11907;SDS011;6014;47.690;9.130;2023-06-26T05:57:50;10.40;;;5.90;;
11907;SDS011;6014;47.690;9.130;2023-06-26T06:00:21;9.93;;;5.88;;
11907;SDS011;6014;47.690;9.130;2023-06-26T06:02:50;11.85;;;5.90;;
11907;SDS011;6014;47.690;9.130;2023-06-26T06:05:21;11.95;;;6.20;;
11907;SDS011;6014;47.690;9.130;2023-06-26T06:07:49;11.15;;;5.82;;
11907;SDS011;6014;47.690;9.130;2023-06-26T06:10:17;10.30;;;5.88;;
11907;SDS011;6014;47.690;9.130;2023-06-26T06:12:46;9.68;;;5.50;;
11907;SDS011;6014;47.690;9.130;2023-06-26T06:15:16;11.35;;;5.78;;
11907;SDS011;6014;47.690;9.130;2023-06-26T06:17:44;10.48;;;5.47;;
11907;SDS011;6014;47.690;9.130;2023-06-26T06:20:13;11.68;;;6.70;;
11907;SDS011;6014;47.690;9.130;2023-06-26T06:22:41;11.63;;;6.10;;
11907;SDS011;6014;47.690;9.130;2023-06-26T06:25:09;9.90;;;5.95;;
11907;SDS011;6014;47.690;9.130;2023-06-26T06:27:37;9.40;;;5.82;;
11907;SDS011;6014;47.690;9.130;2023-06-26T06:30:05;10.63;;;5.50;;
11907;SDS011;6014;47.690;9.130;2023-06-26T06:32:36;11.10;;;5.80;;
11907;SDS011;6014;47.690;9.130;2023-06-26T06:35:05;9.40;;;5.63;;
11907;SDS011;6014;47.690;9.130;2023-06-26T06:37:36;9.48;;;5.50;;
11907;SDS011;6014;47.690;9.130;2023-06-26T06:40:05;10.85;;;5.43;;
11907;SDS011;6014;47.690;9.130;2023-06-26T06:42:34;8.15;;;5.20;;
11907;SDS011;6014;47.690;9.130;2023-06-26T06:45:06;8.13;;;5.38;;
11907;SDS011;6014;47.690;9.130;2023-06-26T06:50:25;9.43;;;5.57;;
11907;SDS011;6014;47.690;9.130;2023-06-26T06:52:53;9.98;;;5.78;;
11907;SDS011;6014;47.690;9.130;2023-06-26T06:55:21;9.30;;;5.93;;
11907;SDS011;6014;47.690;9.130;2023-06-26T06:57:49;11.82;;;6.43;;
11907;SDS011;6014;47.690;9.130;2023-06-26T07:00:18;9.23;;;5.55;;
11907;SDS011;6014;47.690;9.130;2023-06-26T07:02:46;9.10;;;5.47;;
11907;SDS011;6014;47.690;9.130;2023-06-26T07:05:16;9.43;;;5.50;;
11907;SDS011;6014;47.690;9.130;2023-06-26T07:07:44;10.57;;;5.38;;
11907;SDS011;6014;47.690;9.130;2023-06-26T07:10:13;10.18;;;5.95;;
11907;SDS011;6014;47.690;9.130;2023-06-26T07:12:41;8.93;;;5.85;;
11907;SDS011;6014;47.690;9.130;2023-06-26T07:15:10;8.63;;;5.47;;
11907;SDS011;6014;47.690;9.130;2023-06-26T07:17:39;9.02;;;5.60;;
11907;SDS011;6014;47.690;9.130;2023-06-26T07:20:07;10.05;;;5.07;;
11907;SDS011;6014;47.690;9.130;2023-06-26T07:22:43;8.80;;;4.93;;
11907;SDS011;6014;47.690;9.130;2023-06-26T07:25:12;8.10;;;5.20;;
11907;SDS011;6014;47.690;9.130;2023-06-26T07:27:41;8.55;;;5.25;;
11907;SDS011;6014;47.690;9.130;2023-06-26T07:30:10;8.65;;;5.13;;
11907;SDS011;6014;47.690;9.130;2023-06-26T07:32:39;8.60;;;5.22;;
11907;SDS011;6014;47.690;9.130;2023-06-26T07:35:09;10.70;;;5.22;;
11907;SDS011;6014;47.690;9.130;2023-06-26T07:37:37;9.40;;;5.35;;
11907;SDS011;6014;47.690;9.130;2023-06-26T07:40:09;9.45;;;5.43;;
11907;SDS011;6014;47.690;9.130;2023-06-26T07:42:38;8.82;;;4.97;;
11907;SDS011;6014;47.690;9.130;2023-06-26T07:45:07;8.07;;;4.80;;
11907;SDS011;6014;47.690;9.130;2023-06-26T07:47:38;8.15;;;5.05;;
11907;SDS011;6014;47.690;9.130;2023-06-26T07:50:07;9.68;;;5.00;;
11907;SDS011;6014;47.690;9.130;2023-06-26T07:52:36;8.18;;;5.20;;
11907;SDS011;6014;47.690;9.130;2023-06-26T07:55:05;8.88;;;5.10;;
11907;SDS011;6014;47.690;9.130;2023-06-26T07:57:34;12.02;;;5.00;;
11907;SDS011;6014;47.690;9.130;2023-06-26T08:00:03;8.90;;;5.10;;
11907;SDS011;6014;47.690;9.130;2023-06-26T08:02:33;8.00;;;5.10;;
11907;SDS011;6014;47.690;9.130;2023-06-26T08:05:01;9.07;;;5.45;;
11907;SDS011;6014;47.690;9.130;2023-06-26T08:07:29;10.13;;;5.00;;
11907;SDS011;6014;47.690;9.130;2023-06-26T08:09:58;8.45;;;4.85;;
11907;SDS011;6014;47.690;9.130;2023-06-26T08:12:26;7.47;;;4.70;;
11907;SDS011;6014;47.690;9.130;2023-06-26T08:14:55;10.73;;;5.18;;
11907;SDS011;6014;47.690;9.130;2023-06-26T08:17:23;8.52;;;4.90;;
11907;SDS011;6014;47.690;9.130;2023-06-26T08:19:55;11.70;;;4.97;;
11907;SDS011;6014;47.690;9.130;2023-06-26T08:22:23;8.38;;;5.47;;
11907;SDS011;6014;47.690;9.130;2023-06-26T08:24:51;7.68;;;4.47;;
11907;SDS011;6014;47.690;9.130;2023-06-26T08:27:20;8.77;;;5.00;;
11907;SDS011;6014;47.690;9.130;2023-06-26T08:29:48;8.63;;;5.20;;
11907;SDS011;6014;47.690;9.130;2023-06-26T08:32:18;7.85;;;5.00;;
11907;SDS011;6014;47.690;9.130;2023-06-26T08:34:47;7.93;;;4.88;;
11907;SDS011;6014;47.690;9.130;2023-06-26T08:37:15;8.40;;;4.75;;
11907;SDS011;6014;47.690;9.130;2023-06-26T08:39:43;9.55;;;4.97;;
11907;SDS011;6014;47.690;9.130;2023-06-26T08:42:12;7.72;;;4.88;;
11907;SDS011;6014;47.690;9.130;2023-06-26T08:44:40;9.15;;;4.78;;
11907;SDS011;6014;47.690;9.130;2023-06-26T08:47:28;8.32;;;4.75;;
11907;SDS011;6014;47.690;9.130;2023-06-26T08:50:01;7.68;;;4.55;;
11907;SDS011;6014;47.690;9.130;2023-06-26T08:52:35;7.22;;;4.40;;
11907;SDS011;6014;47.690;9.130;2023-06-26T08:55:06;7.60;;;4.25;;
11907;SDS011;6014;47.690;9.130;2023-06-26T08:57:37;7.35;;;4.28;;
11907;SDS011;6014;47.690;9.130;2023-06-26T09:00:07;7.15;;;4.40;;
11907;SDS011;6014;47.690;9.130;2023-06-26T09:02:42;7.65;;;4.25;;
11907;SDS011;6014;47.690;9.130;2023-06-26T09:05:12;8.23;;;4.60;;
11907;SDS011;6014;47.690;9.130;2023-06-26T09:07:40;6.70;;;4.25;;
11907;SDS011;6014;47.690;9.130;2023-06-26T09:10:09;6.60;;;4.68;;
11907;SDS011;6014;47.690;9.130;2023-06-26T09:12:37;7.55;;;4.68;;
11907;SDS011;6014;47.690;9.130;2023-06-26T09:15:06;7.28;;;4.72;;
11907;SDS011;6014;47.690;9.130;2023-06-26T09:17:38;7.85;;;4.55;;
11907;SDS011;6014;47.690;9.130;2023-06-26T09:20:09;10.73;;;4.13;;
11907;SDS011;6014;47.690;9.130;2023-06-26T09:22:40;7.15;;;4.20;;
11907;SDS011;6014;47.690;9.130;2023-06-26T09:25:09;7.45;;;4.13;;
11907;SDS011;6014;47.690;9.130;2023-06-26T09:27:38;8.20;;;4.07;;
11907;SDS011;6014;47.690;9.130;2023-06-26T09:30:07;7.93;;;4.38;;
11907;SDS011;6014;47.690;9.130;2023-06-26T09:32:35;8.68;;;4.05;;
11907;SDS011;6014;47.690;9.130;2023-06-26T09:35:04;7.55;;;4.05;;
11907;SDS011;6014;47.690;9.130;2023-06-26T09:37:35;7.28;;;4.00;;
11907;SDS011;6014;47.690;9.130;2023-06-26T09:40:04;6.65;;;3.75;;
11907;SDS011;6014;47.690;9.130;2023-06-26T09:42:33;6.50;;;3.97;;
11907;SDS011;6014;47.690;9.130;2023-06-26T09:45:02;6.65;;;4.30;;
11907;SDS011;6014;47.690;9.130;2023-06-26T09:47:31;7.53;;;4.22;;
11907;SDS011;6014;47.690;9.130;2023-06-26T09:50:02;7.85;;;4.03;;
11907;SDS011;6014;47.690;9.130;2023-06-26T09:52:39;6.50;;;4.07;;
11907;SDS011;6014;47.690;9.130;2023-06-26T09:55:09;6.25;;;3.80;;
11907;SDS011;6014;47.690;9.130;2023-06-26T09:57:37;6.30;;;3.67;;
11907;SDS011;6014;47.690;9.130;2023-06-26T10:00:07;6.95;;;3.90;;
11907;SDS011;6014;47.690;9.130;2023-06-26T10:02:36;7.28;;;3.83;;
11907;SDS011;6014;47.690;9.130;2023-06-26T10:05:05;6.18;;;3.88;;
11907;SDS011;6014;47.690;9.130;2023-06-26T10:07:33;6.93;;;3.80;;
11907;SDS011;6014;47.690;9.130;2023-06-26T10:10:04;6.72;;;3.47;;
11907;SDS011;6014;47.690;9.130;2023-06-26T10:12:34;6.55;;;3.65;;
11907;SDS011;6014;47.690;9.130;2023-06-26T10:15:03;7.97;;;3.92;;
11907;SDS011;6014;47.690;9.130;2023-06-26T10:17:34;6.93;;;3.85;;
11907;SDS011;6014;47.690;9.130;2023-06-26T10:20:04;7.25;;;3.85;;
11907;SDS011;6014;47.690;9.130;2023-06-26T10:22:37;5.95;;;3.55;;
11907;SDS011;6014;47.690;9.130;2023-06-26T10:25:11;6.32;;;3.95;;
11907;SDS011;6014;47.690;9.130;2023-06-26T10:27:47;6.50;;;3.50;;
11907;SDS011;6014;47.690;9.130;2023-06-26T10:30:19;6.72;;;3.75;;
11907;SDS011;6014;47.690;9.130;2023-06-26T10:32:51;6.60;;;3.33;;
11907;SDS011;6014;47.690;9.130;2023-06-26T10:35:21;7.13;;;4.05;;
11907;SDS011;6014;47.690;9.130;2023-06-26T10:37:50;6.57;;;4.05;;
11907;SDS011;6014;47.690;9.130;2023-06-26T10:40:25;6.25;;;3.58;;
11907;SDS011;6014;47.690;9.130;2023-06-26T10:43:05;9.07;;;3.60;;
11907;SDS011;6014;47.690;9.130;2023-06-26T10:45:35;7.07;;;3.88;;
11907;SDS011;6014;47.690;9.130;2023-06-26T10:48:12;6.35;;;3.53;;
11907;SDS011;6014;47.690;9.130;2023-06-26T10:50:42;7.38;;;4.25;;
11907;SDS011;6014;47.690;9.130;2023-06-26T10:53:11;7.50;;;3.80;;
11907;SDS011;6014;47.690;9.130;2023-06-26T10:55:50;7.95;;;3.95;;
11907;SDS011;6014;47.690;9.130;2023-06-26T10:58:30;6.75;;;3.70;;
11907;SDS011;6014;47.690;9.130;2023-06-26T11:01:14;5.57;;;3.28;;
11907;SDS011;6014;47.690;9.130;2023-06-26T11:03:45;5.47;;;3.33;;
11907;SDS011;6014;47.690;9.130;2023-06-26T11:06:17;6.20;;;3.38;;
11907;SDS011;6014;47.690;9.130;2023-06-26T11:08:47;6.28;;;3.47;;
11907;SDS011;6014;47.690;9.130;2023-06-26T11:14:32;6.00;;;3.17;;
11907;SDS011;6014;47.690;9.130;2023-06-26T11:17:04;6.53;;;3.92;;
11907;SDS011;6014;47.690;9.130;2023-06-26T11:19:32;6.30;;;3.35;;
11907;SDS011;6014;47.690;9.130;2023-06-26T11:22:04;6.30;;;3.42;;
11907;SDS011;6014;47.690;9.130;2023-06-26T11:24:32;5.75;;;3.50;;
11907;SDS011;6014;47.690;9.130;2023-06-26T11:27:02;6.13;;;3.65;;
11907;SDS011;6014;47.690;9.130;2023-06-26T11:29:33;6.35;;;3.83;;
11907;SDS011;6014;47.690;9.130;2023-06-26T11:32:03;6.32;;;3.47;;
11907;SDS011;6014;47.690;9.130;2023-06-26T11:34:33;6.90;;;3.40;;
11907;SDS011;6014;47.690;9.130;2023-06-26T11:37:04;5.30;;;3.08;;
11907;SDS011;6014;47.690;9.130;2023-06-26T11:39:33;6.60;;;3.90;;
11907;SDS011;6014;47.690;9.130;2023-06-26T11:42:01;6.95;;;3.92;;
11907;SDS011;6014;47.690;9.130;2023-06-26T11:44:29;6.68;;;3.65;;
11907;SDS011;6014;47.690;9.130;2023-06-26T11:46:59;7.78;;;3.72;;
11907;SDS011;6014;47.690;9.130;2023-06-26T11:49:28;6.90;;;3.85;;
11907;SDS011;6014;47.690;9.130;2023-06-26T11:51:57;7.75;;;4.00;;
11907;SDS011;6014;47.690;9.130;2023-06-26T11:54:26;6.80;;;3.85;;
11907;SDS011;6014;47.690;9.130;2023-06-26T11:56:55;6.95;;;4.05;;
11907;SDS011;6014;47.690;9.130;2023-06-26T11:59:32;6.68;;;3.53;;
11907;SDS011;6014;47.690;9.130;2023-06-26T12:02:06;5.85;;;3.33;;
11907;SDS011;6014;47.690;9.130;2023-06-26T12:04:36;7.47;;;3.53;;
11907;SDS011;6014;47.690;9.130;2023-06-26T12:07:06;7.75;;;4.32;;
11907;SDS011;6014;47.690;9.130;2023-06-26T12:09:39;6.78;;;3.78;;
11907;SDS011;6014;47.690;9.130;2023-06-26T12:12:12;6.60;;;3.80;;
11907;SDS011;6014;47.690;9.130;2023-06-26T12:14:42;6.50;;;3.95;;
11907;SDS011;6014;47.690;9.130;2023-06-26T12:17:15;7.57;;;4.18;;
11907;SDS011;6014;47.690;9.130;2023-06-26T12:19:45;6.63;;;3.75;;
11907;SDS011;6014;47.690;9.130;2023-06-26T12:22:14;7.25;;;3.92;;
11907;SDS011;6014;47.690;9.130;2023-06-26T12:24:43;7.07;;;3.80;;
11907;SDS011;6014;47.690;9.130;2023-06-26T12:27:13;6.90;;;3.92;;
11907;SDS011;6014;47.690;9.130;2023-06-26T12:29:45;6.10;;;3.70;;
11907;SDS011;6014;47.690;9.130;2023-06-26T12:32:19;7.50;;;4.07;;
11907;SDS011;6014;47.690;9.130;2023-06-26T12:34:50;7.63;;;3.92;;
11907;SDS011;6014;47.690;9.130;2023-06-26T12:37:19;7.38;;;4.30;;
11907;SDS011;6014;47.690;9.130;2023-06-26T12:39:49;6.10;;;3.53;;
11907;SDS011;6014;47.690;9.130;2023-06-26T12:42:18;6.68;;;3.55;;
11907;SDS011;6014;47.690;9.130;2023-06-26T12:44:48;8.25;;;4.05;;
11907;SDS011;6014;47.690;9.130;2023-06-26T12:47:16;9.85;;;4.05;;
11907;SDS011;6014;47.690;9.130;2023-06-26T12:49:50;7.45;;;3.97;;
11907;SDS011;6014;47.690;9.130;2023-06-26T12:52:24;6.53;;;3.70;;
11907;SDS011;6014;47.690;9.130;2023-06-26T12:54:53;6.15;;;3.85;;
11907;SDS011;6014;47.690;9.130;2023-06-26T12:57:26;7.43;;;4.05;;
11907;SDS011;6014;47.690;9.130;2023-06-26T12:59:54;6.65;;;4.03;;
11907;SDS011;6014;47.690;9.130;2023-06-26T13:02:22;13.32;;;4.28;;
11907;SDS011;6014;47.690;9.130;2023-06-26T13:04:52;6.88;;;4.15;;
11907;SDS011;6014;47.690;9.130;2023-06-26T13:07:20;8.02;;;4.20;;
11907;SDS011;6014;47.690;9.130;2023-06-26T13:09:51;7.82;;;4.20;;
11907;SDS011;6014;47.690;9.130;2023-06-26T13:12:20;8.20;;;4.50;;
11907;SDS011;6014;47.690;9.130;2023-06-26T13:14:48;6.82;;;4.25;;
11907;SDS011;6014;47.690;9.130;2023-06-26T13:17:16;7.43;;;4.07;;
11907;SDS011;6014;47.690;9.130;2023-06-26T13:19:45;8.88;;;4.18;;
11907;SDS011;6014;47.690;9.130;2023-06-26T13:22:15;7.57;;;4.18;;
11907;SDS011;6014;47.690;9.130;2023-06-26T13:24:43;6.55;;;3.88;;
11907;SDS011;6014;47.690;9.130;2023-06-26T13:27:12;5.70;;;3.72;;
11907;SDS011;6014;47.690;9.130;2023-06-26T13:29:42;6.80;;;4.35;;
11907;SDS011;6014;47.690;9.130;2023-06-26T13:32:12;7.30;;;4.43;;
11907;SDS011;6014;47.690;9.130;2023-06-26T13:34:40;6.63;;;3.92;;
11907;SDS011;6014;47.690;9.130;2023-06-26T13:37:11;6.28;;;3.67;;
11907;SDS011;6014;47.690;9.130;2023-06-26T13:39:40;7.93;;;4.57;;
11907;SDS011;6014;47.690;9.130;2023-06-26T13:42:17;11.77;;;4.60;;
11907;SDS011;6014;47.690;9.130;2023-06-26T13:44:46;7.03;;;4.10;;
11907;SDS011;6014;47.690;9.130;2023-06-26T13:47:28;8.18;;;4.43;;
11907;SDS011;6014;47.690;9.130;2023-06-26T13:49:56;8.63;;;4.15;;
11907;SDS011;6014;47.690;9.130;2023-06-26T13:52:26;7.72;;;4.13;;
11907;SDS011;6014;47.690;9.130;2023-06-26T13:54:56;6.20;;;3.97;;
11907;SDS011;6014;47.690;9.130;2023-06-26T13:57:24;7.07;;;4.50;;
11907;SDS011;6014;47.690;9.130;2023-06-26T13:59:53;9.63;;;4.20;;
11907;SDS011;6014;47.690;9.130;2023-06-26T14:02:32;6.93;;;4.28;;
11907;SDS011;6014;47.690;9.130;2023-06-26T14:05:00;7.90;;;4.75;;
11907;SDS011;6014;47.690;9.130;2023-06-26T14:07:30;7.03;;;4.20;;
11907;SDS011;6014;47.690;9.130;2023-06-26T14:10:00;6.82;;;4.10;;
11907;SDS011;6014;47.690;9.130;2023-06-26T14:12:28;7.53;;;4.60;;
11907;SDS011;6014;47.690;9.130;2023-06-26T14:14:56;7.55;;;4.18;;
11907;SDS011;6014;47.690;9.130;2023-06-26T14:17:25;7.38;;;4.30;;
11907;SDS011;6014;47.690;9.130;2023-06-26T14:19:53;9.55;;;4.25;;
11907;SDS011;6014;47.690;9.130;2023-06-26T14:22:21;8.85;;;4.55;;
11907;SDS011;6014;47.690;9.130;2023-06-26T14:24:50;9.10;;;4.22;;
11907;SDS011;6014;47.690;9.130;2023-06-26T14:27:19;8.15;;;4.22;;
11907;SDS011;6014;47.690;9.130;2023-06-26T14:29:47;8.25;;;3.97;;
11907;SDS011;6014;47.690;9.130;2023-06-26T14:32:15;8.05;;;4.18;;
11907;SDS011;6014;47.690;9.130;2023-06-26T14:34:44;7.82;;;4.30;;
11907;SDS011;6014;47.690;9.130;2023-06-26T14:37:12;7.32;;;4.13;;
11907;SDS011;6014;47.690;9.130;2023-06-26T14:39:40;9.50;;;3.97;;
11907;SDS011;6014;47.690;9.130;2023-06-26T14:42:09;7.50;;;3.90;;
11907;SDS011;6014;47.690;9.130;2023-06-26T14:44:39;8.02;;;4.07;;
11907;SDS011;6014;47.690;9.130;2023-06-26T14:47:07;7.82;;;4.30;;
11907;SDS011;6014;47.690;9.130;2023-06-26T14:49:36;7.32;;;4.30;;
11907;SDS011;6014;47.690;9.130;2023-06-26T14:52:05;7.70;;;4.43;;
11907;SDS011;6014;47.690;9.130;2023-06-26T14:54:35;6.95;;;4.05;;
11907;SDS011;6014;47.690;9.130;2023-06-26T14:57:03;7.55;;;4.05;;
11907;SDS011;6014;47.690;9.130;2023-06-26T14:59:32;7.30;;;4.20;;
11907;SDS011;6014;47.690;9.130;2023-06-26T15:02:11;7.75;;;4.57;;
11907;SDS011;6014;47.690;9.130;2023-06-26T15:04:39;7.22;;;3.83;;
11907;SDS011;6014;47.690;9.130;2023-06-26T15:07:07;7.47;;;4.35;;
11907;SDS011;6014;47.690;9.130;2023-06-26T15:09:35;7.53;;;4.40;;
11907;SDS011;6014;47.690;9.130;2023-06-26T15:14:37;6.65;;;4.05;;
11907;SDS011;6014;47.690;9.130;2023-06-26T15:17:05;8.10;;;4.00;;
11907;SDS011;6014;47.690;9.130;2023-06-26T15:19:35;7.63;;;4.47;;
11907;SDS011;6014;47.690;9.130;2023-06-26T15:22:05;7.47;;;4.45;;
11907;SDS011;6014;47.690;9.130;2023-06-26T15:24:33;7.28;;;4.03;;
11907;SDS011;6014;47.690;9.130;2023-06-26T15:27:02;6.95;;;4.18;;
11907;SDS011;6014;47.690;9.130;2023-06-26T15:29:32;8.75;;;4.60;;
11907;SDS011;6014;47.690;9.130;2023-06-26T15:32:00;7.78;;;4.30;;
11907;SDS011;6014;47.690;9.130;2023-06-26T15:34:29;7.60;;;4.18;;
11907;SDS011;6014;47.690;9.130;2023-06-26T15:36:58;6.80;;;3.92;;
11907;SDS011;6014;47.690;9.130;2023-06-26T15:39:26;6.97;;;4.22;;
11907;SDS011;6014;47.690;9.130;2023-06-26T15:41:54;7.55;;;4.10;;
11907;SDS011;6014;47.690;9.130;2023-06-26T15:44:23;8.43;;;4.90;;
11907;SDS011;6014;47.690;9.130;2023-06-26T15:46:51;9.32;;;4.38;;